Terminal Aerodrome Forecast
Issued by NWS

Home | Current Version | Previous Version | Text Only | Print | Product List | Glossary On
Versions: 1 2 3 4 5 6 7 8 9 10 11 12 13 14 15 16
107
FTUS43 KDVN 200520
TAFBRL
TAF
KBRL 200520Z 2006/2106 12004KT P6SM BKN250
     FM201300 14007KT P6SM VCSH BKN080
     FM201800 17011KT P6SM SCT040 BKN250
     FM210200 15006KT P6SM BKN120=

USA.gov is the U.S. government's official web portal to all federal, state and local government web resources and services.